Time;durP1;ratioP1;P1;durP2;ratioP2;P2;SDS_P1;SDS_P2;PMS_P1;PMS_P2;Temp;Humidity;BMP_temperature;BMP_pressure;BME280_temperature;BME280_humidity;BME280_pressure;Samples;Min_cycle;Max_cycle;Signal;HPM_P1;HPM_P2
2024/01/25 00:01:34;;;;;;;14.93;5.93;;;8.20;64.70;;;;;;6229947;28;20254;-82
2024/01/25 00:04:40;;;;;;;15.00;5.53;;;8.20;64.60;;;;;;6237076;28;20308;-82
2024/01/25 00:07:46;;;;;;;18.10;6.10;;;8.20;64.80;;;;;;6228677;28;20246;-81
2024/01/25 00:10:51;;;;;;;17.43;5.40;;;8.20;65.00;;;;;;6237162;28;20489;-81
2024/01/25 00:13:54;;;;;;;19.30;6.70;;;8.10;65.40;;;;;;6237920;28;20235;-82
2024/01/25 00:16:57;;;;;;;16.40;6.57;;;8.10;65.70;;;;;;6222216;28;20892;-82
2024/01/25 00:20:00;;;;;;;17.77;6.20;;;8.10;66.00;;;;;;6239474;28;20242;-82
2024/01/25 00:23:04;;;;;;;14.23;5.90;;;8.00;66.20;;;;;;6241982;28;20246;-81
2024/01/25 00:26:09;;;;;;;13.87;6.40;;;8.00;66.50;;;;;;6223059;28;20377;-81
2024/01/25 00:29:12;;;;;;;15.00;6.50;;;8.00;66.80;;;;;;6239903;28;20253;-81
2024/01/25 00:32:15;;;;;;;15.17;6.03;;;8.00;66.60;;;;;;6234553;28;20324;-83
2024/01/25 00:35:19;;;;;;;19.67;6.43;;;8.00;66.60;;;;;;6239063;28;20245;-80
2024/01/25 00:38:23;;;;;;;15.33;6.20;;;8.00;66.70;;;;;;6235489;28;20234;-81
2024/01/25 00:41:31;;;;;;;17.87;6.27;;;8.00;66.50;;;;;;6241220;28;20327;-79
2024/01/25 00:44:35;;;;;;;13.77;5.37;;;8.00;66.80;;;;;;6240865;28;20239;-80
2024/01/25 00:47:39;;;;;;;23.77;6.90;;;8.00;66.50;;;;;;6238178;28;20257;-81
2024/01/25 00:50:42;;;;;;;24.73;7.43;;;8.00;66.50;;;;;;6225679;28;20234;-79
2024/01/25 00:53:46;;;;;;;21.23;6.97;;;8.00;66.80;;;;;;6240522;28;20258;-81
2024/01/25 00:56:52;;;;;;;15.03;6.10;;;7.90;66.80;;;;;;6233453;28;21576;-81
2024/01/25 00:59:56;;;;;;;23.37;6.67;;;7.90;66.90;;;;;;6242250;28;20230;-80
2024/01/25 01:03:03;;;;;;;16.53;6.87;;;7.90;67.00;;;;;;6239827;28;20324;-81
2024/01/25 01:06:08;;;;;;;16.57;6.33;;;7.90;66.60;;;;;;6237387;28;20271;-80
2024/01/25 01:09:11;;;;;;;23.30;6.30;;;8.00;66.60;;;;;;6239942;28;20238;-82
2024/01/25 01:12:16;;;;;;;18.23;5.37;;;8.00;66.60;;;;;;6229708;28;20242;-80
2024/01/25 01:15:19;;;;;;;13.50;6.43;;;8.00;66.40;;;;;;6229592;28;20251;-83
2024/01/25 01:18:22;;;;;;;14.20;5.43;;;8.00;66.50;;;;;;6219262;28;20243;-82
2024/01/25 01:21:26;;;;;;;20.17;6.23;;;8.00;66.40;;;;;;6204589;28;20290;-82
2024/01/25 01:24:29;;;;;;;13.57;5.60;;;8.00;66.10;;;;;;6219874;28;20292;-82
2024/01/25 01:27:34;;;;;;;16.07;5.83;;;8.00;66.20;;;;;;6228771;28;20714;-82
2024/01/25 01:30:41;;;;;;;14.03;6.03;;;8.00;66.10;;;;;;6240439;28;20635;-82
2024/01/25 01:33:44;;;;;;;16.33;5.87;;;8.00;66.20;;;;;;6234573;28;20243;-79
2024/01/25 01:36:47;;;;;;;23.33;5.90;;;8.00;66.20;;;;;;6237048;28;20231;-81
2024/01/25 01:40:14;;;;;;;18.37;6.30;;;8.00;66.20;;;;;;6241367;28;20230;-81
2024/01/25 01:43:23;;;;;;;16.83;6.00;;;7.90;66.40;;;;;;6243798;28;20241;-82
2024/01/25 01:46:33;;;;;;;20.83;5.60;;;7.90;66.30;;;;;;6239837;28;20235;-84
2024/01/25 01:49:37;;;;;;;17.30;6.03;;;7.90;66.20;;;;;;6240034;28;20305;-83
2024/01/25 01:52:40;;;;;;;19.33;6.13;;;7.90;66.20;;;;;;6232796;28;20250;-81
2024/01/25 01:55:44;;;;;;;19.43;6.73;;;7.90;66.10;;;;;;6240727;28;20250;-81
2024/01/25 01:58:49;;;;;;;18.80;5.83;;;8.00;66.00;;;;;;6233822;28;20317;-80
2024/01/25 02:01:52;;;;;;;17.57;6.13;;;8.00;66.00;;;;;;6241074;28;20298;-82
2024/01/25 02:04:56;;;;;;;18.37;6.07;;;7.90;66.20;;;;;;6237807;28;20252;-80
2024/01/25 02:07:59;;;;;;;12.03;6.00;;;7.90;66.00;;;;;;6215165;28;20243;-81
2024/01/25 02:11:03;;;;;;;16.97;5.80;;;7.80;66.20;;;;;;6213844;28;20373;-80
2024/01/25 02:14:11;;;;;;;14.93;5.93;;;7.80;66.20;;;;;;6196299;28;20235;-81
2024/01/25 02:17:15;;;;;;;19.93;6.77;;;7.80;66.10;;;;;;6211915;28;20235;-82
2024/01/25 02:20:19;;;;;;;24.93;6.60;;;7.80;66.50;;;;;;6212334;28;20227;-80
2024/01/25 02:23:24;;;;;;;18.40;6.07;;;7.80;66.40;;;;;;6228846;28;20230;-81
2024/01/25 02:26:27;;;;;;;19.17;7.10;;;7.80;66.50;;;;;;6238724;28;20265;-81
2024/01/25 02:29:30;;;;;;;18.87;5.73;;;7.80;66.60;;;;;;6239678;28;20638;-81
2024/01/25 02:32:34;;;;;;;20.47;7.03;;;7.80;66.50;;;;;;6232009;28;20254;-85
2024/01/25 02:35:38;;;;;;;19.90;7.00;;;7.80;66.60;;;;;;6244673;28;20243;-82
2024/01/25 02:38:43;;;;;;;19.30;6.57;;;7.80;66.60;;;;;;6235001;28;20281;-81
2024/01/25 02:41:46;;;;;;;17.97;5.93;;;7.70;66.70;;;;;;6239563;28;20344;-80
2024/01/25 02:44:49;;;;;;;18.90;6.17;;;7.80;66.80;;;;;;6231924;28;20622;-82
2024/01/25 02:47:55;;;;;;;18.77;6.17;;;7.70;66.60;;;;;;6221391;28;20235;-80
2024/01/25 02:51:00;;;;;;;20.30;7.00;;;7.60;66.80;;;;;;6228941;28;20226;-79
2024/01/25 02:54:05;;;;;;;20.63;7.63;;;7.60;67.00;;;;;;6211768;28;20318;-80
2024/01/25 02:57:08;;;;;;;18.20;6.53;;;7.60;67.10;;;;;;6198709;28;20255;-81
2024/01/25 03:00:12;;;;;;;15.07;5.70;;;7.60;67.30;;;;;;6212762;28;20240;-82
2024/01/25 03:03:16;;;;;;;18.33;5.97;;;7.60;67.30;;;;;;6231271;28;20231;-81
2024/01/25 03:06:21;;;;;;;18.47;7.23;;;7.60;67.00;;;;;;6232661;28;20265;-81
2024/01/25 03:09:25;;;;;;;16.10;6.57;;;7.60;67.10;;;;;;6221411;28;20249;-82
2024/01/25 03:12:28;;;;;;;23.27;6.43;;;7.60;67.10;;;;;;6226843;28;20246;-83
2024/01/25 03:15:32;;;;;;;23.90;6.30;;;7.60;66.80;;;;;;6228639;28;20253;-79
2024/01/25 03:18:35;;;;;;;16.73;5.83;;;7.60;66.50;;;;;;6235404;28;20323;-81
2024/01/25 03:21:38;;;;;;;21.47;6.13;;;7.60;66.30;;;;;;6229960;28;20238;-80
2024/01/25 03:24:43;;;;;;;17.13;6.43;;;7.60;66.50;;;;;;6236931;28;20239;-79
2024/01/25 03:27:46;;;;;;;19.07;6.40;;;7.60;66.30;;;;;;6232618;28;20257;-82
2024/01/25 03:30:49;;;;;;;18.03;6.40;;;7.60;66.10;;;;;;6218209;28;20239;-81
2024/01/25 03:33:53;;;;;;;17.00;6.87;;;7.60;66.10;;;;;;6237376;28;20242;-81
2024/01/25 03:36:57;;;;;;;15.80;6.30;;;7.60;66.20;;;;;;6230569;28;20226;-80
2024/01/25 03:40:01;;;;;;;23.90;7.47;;;7.60;65.90;;;;;;6239353;28;20242;-80
2024/01/25 03:43:05;;;;;;;21.53;5.90;;;7.60;66.00;;;;;;6238997;28;20621;-82
2024/01/25 03:46:21;;;;;;;26.77;7.47;;;7.50;65.90;;;;;;6226932;28;20231;-81
2024/01/25 03:49:24;;;;;;;23.57;7.40;;;7.50;65.80;;;;;;6232627;28;20763;-81
2024/01/25 03:52:29;;;;;;;17.57;6.33;;;7.50;66.20;;;;;;6210468;28;20588;-81
2024/01/25 03:55:34;;;;;;;19.50;7.00;;;7.50;66.10;;;;;;6232889;28;20239;-79
2024/01/25 03:58:37;;;;;;;21.67;6.70;;;7.50;66.40;;;;;;6227789;28;20246;-81
2024/01/25 04:01:45;;;;;;;16.00;5.70;;;7.50;66.40;;;;;;6237123;28;20614;-80
2024/01/25 04:04:49;;;;;;;21.40;6.57;;;7.40;66.50;;;;;;6242617;28;20244;-82
2024/01/25 04:07:55;;;;;;;13.37;5.60;;;7.50;66.40;;;;;;6208432;28;20235;-81
2024/01/25 04:14:51;;;;;;;24.37;7.30;;;7.50;66.10;;;;;;6216508;28;20330;-79
2024/01/25 04:17:55;;;;;;;23.83;6.90;;;7.50;66.30;;;;;;6216165;28;20235;-80
2024/01/25 04:20:59;;;;;;;21.70;7.03;;;7.50;66.40;;;;;;6218573;28;20327;-81
2024/01/25 04:24:04;;;;;;;17.10;7.20;;;7.40;66.60;;;;;;6215313;28;20874;-81
2024/01/25 04:27:09;;;;;;;16.23;6.63;;;7.40;66.50;;;;;;6201944;28;20657;-82
2024/01/25 04:30:12;;;;;;;23.73;6.13;;;7.40;66.60;;;;;;6217090;28;20315;-81
2024/01/25 04:33:15;;;;;;;18.97;6.23;;;7.40;66.50;;;;;;6213691;28;20223;-80
2024/01/25 04:36:18;;;;;;;17.77;6.03;;;7.40;66.50;;;;;;6222494;28;20266;-82
2024/01/25 04:39:21;;;;;;;23.60;7.33;;;7.40;66.70;;;;;;6228797;28;20234;-80
2024/01/25 04:42:27;;;;;;;12.77;5.90;;;7.40;66.90;;;;;;6213497;28;20235;-80
2024/01/25 04:45:30;;;;;;;23.10;7.23;;;7.40;67.00;;;;;;6222397;28;20238;-80
2024/01/25 04:48:34;;;;;;;18.63;6.30;;;7.40;67.10;;;;;;6219650;28;20382;-84
2024/01/25 04:51:37;;;;;;;19.90;6.93;;;7.30;66.90;;;;;;6217051;28;20521;-81
2024/01/25 04:54:41;;;;;;;19.83;7.00;;;7.40;66.90;;;;;;6220221;28;20323;-82
2024/01/25 04:57:45;;;;;;;19.83;6.50;;;7.40;66.80;;;;;;6219402;28;20770;-82
2024/01/25 05:00:50;;;;;;;17.90;6.40;;;7.40;66.80;;;;;;6225487;28;20314;-83
2024/01/25 05:03:53;;;;;;;14.27;6.03;;;7.40;66.80;;;;;;6218766;28;20330;-82
2024/01/25 05:06:57;;;;;;;24.73;6.67;;;7.30;66.80;;;;;;6217545;28;20331;-82
2024/01/25 05:10:00;;;;;;;19.07;6.87;;;7.40;66.70;;;;;;6218274;28;20246;-83
2024/01/25 05:13:06;;;;;;;21.50;6.17;;;7.40;66.80;;;;;;6220754;28;20277;-82
2024/01/25 05:16:09;;;;;;;24.60;6.57;;;7.40;66.90;;;;;;6218223;28;20279;-81
2024/01/25 05:19:12;;;;;;;15.77;6.20;;;7.40;66.80;;;;;;6221754;28;20279;-83
2024/01/25 05:22:16;;;;;;;20.57;6.07;;;7.40;66.90;;;;;;6218699;28;20246;-83
2024/01/25 05:25:19;;;;;;;19.30;6.23;;;7.40;66.90;;;;;;6221930;28;20378;-83
2024/01/25 05:28:24;;;;;;;20.77;6.67;;;7.40;67.10;;;;;;6218801;28;20674;-82
2024/01/25 05:31:27;;;;;;;15.30;6.30;;;7.30;67.10;;;;;;6221699;28;20853;-81
2024/01/25 05:34:31;;;;;;;17.33;5.53;;;7.40;67.10;;;;;;6216420;28;20797;-82
2024/01/25 05:37:34;;;;;;;26.20;6.70;;;7.30;67.10;;;;;;6223203;28;20614;-81
2024/01/25 05:40:37;;;;;;;27.13;7.30;;;7.30;67.20;;;;;;6217217;28;20253;-82
2024/01/25 05:43:42;;;;;;;15.40;6.23;;;7.30;67.00;;;;;;6215756;28;20247;-82
2024/01/25 05:46:45;;;;;;;19.30;6.43;;;7.30;66.90;;;;;;6213324;28;20317;-81
2024/01/25 05:49:48;;;;;;;15.73;6.33;;;7.20;66.90;;;;;;6217250;28;20239;-82
2024/01/25 05:52:52;;;;;;;17.57;5.37;;;7.30;66.30;;;;;;6214592;28;20227;-83
2024/01/25 05:55:55;;;;;;;15.60;6.13;;;7.40;66.10;;;;;;6216041;28;20239;-82
2024/01/25 05:58:59;;;;;;;16.97;5.77;;;7.40;66.00;;;;;;6214055;28;20242;-82
2024/01/25 06:02:02;;;;;;;17.43;6.37;;;7.40;65.90;;;;;;6212759;28;20307;-79
2024/01/25 06:05:07;;;;;;;16.40;5.77;;;7.40;65.80;;;;;;6211588;28;20251;-82
2024/01/25 06:08:11;;;;;;;19.77;5.97;;;7.40;65.70;;;;;;6213171;28;20243;-81
2024/01/25 06:11:15;;;;;;;13.77;5.43;;;7.40;65.70;;;;;;6208384;28;20232;-82
2024/01/25 06:14:20;;;;;;;15.80;6.17;;;7.40;65.70;;;;;;6214682;28;20296;-79
2024/01/25 06:17:23;;;;;;;17.93;6.00;;;7.40;65.60;;;;;;6213086;28;20239;-83
2024/01/25 06:20:26;;;;;;;17.37;5.57;;;7.40;65.80;;;;;;6210965;28;20721;-80
2024/01/25 06:23:29;;;;;;;16.40;5.70;;;7.30;65.90;;;;;;6225906;28;20817;-79
2024/01/25 06:26:33;;;;;;;15.37;5.87;;;7.30;65.90;;;;;;6243221;28;20666;-81
2024/01/25 06:29:37;;;;;;;13.60;5.40;;;7.30;66.10;;;;;;6232839;28;20242;-80
2024/01/25 06:32:40;;;;;;;17.77;6.10;;;7.40;66.10;;;;;;6228132;28;20305;-79
2024/01/25 06:35:44;;;;;;;20.13;6.20;;;7.40;65.90;;;;;;6236791;28;20345;-79
2024/01/25 06:38:48;;;;;;;21.47;6.77;;;7.40;65.70;;;;;;6225709;28;20242;-76
2024/01/25 06:41:51;;;;;;;22.23;7.17;;;7.30;65.90;;;;;;6230666;28;20364;-82
2024/01/25 06:44:55;;;;;;;10.47;4.93;;;7.30;65.80;;;;;;6230603;28;20243;-78
2024/01/25 06:47:58;;;;;;;13.57;5.70;;;7.30;65.70;;;;;;6232706;28;20786;-81
2024/01/25 06:51:02;;;;;;;13.47;5.90;;;7.20;65.70;;;;;;6231317;28;20262;-78
2024/01/25 06:54:05;;;;;;;14.33;5.20;;;7.30;65.80;;;;;;6232191;28;20765;-79
2024/01/25 06:57:08;;;;;;;19.40;5.60;;;7.30;65.60;;;;;;6228501;28;20238;-81
2024/01/25 07:00:15;;;;;;;17.57;5.90;;;7.30;65.60;;;;;;6229565;28;20238;-82
2024/01/25 07:03:19;;;;;;;12.90;5.70;;;7.40;65.70;;;;;;6229768;28;20644;-80
2024/01/25 07:06:26;;;;;;;16.30;5.57;;;7.40;65.50;;;;;;6228432;28;20242;-80
2024/01/25 07:09:29;;;;;;;18.63;5.80;;;7.40;65.40;;;;;;6229237;28;20264;-80
2024/01/25 07:12:32;;;;;;;17.33;5.97;;;7.40;65.30;;;;;;6228426;28;20722;-78
2024/01/25 07:15:37;;;;;;;17.83;5.87;;;7.40;65.10;;;;;;6211312;28;20241;-78
2024/01/25 07:18:40;;;;;;;15.50;6.13;;;7.40;65.20;;;;;;6229720;28;20245;-77
2024/01/25 07:21:45;;;;;;;12.23;5.27;;;7.40;65.40;;;;;;6229307;28;20239;-77
2024/01/25 07:24:48;;;;;;;13.10;5.37;;;7.40;65.40;;;;;;6227500;28;20242;-79
2024/01/25 07:27:52;;;;;;;18.13;5.50;;;7.40;65.50;;;;;;6228519;28;20820;-80
2024/01/25 07:30:57;;;;;;;14.27;5.23;;;7.40;65.60;;;;;;6230167;28;20254;-79
2024/01/25 07:34:00;;;;;;;17.67;5.20;;;7.40;65.80;;;;;;6228269;28;20238;-78
2024/01/25 07:37:04;;;;;;;15.30;5.83;;;7.40;65.80;;;;;;6229226;28;20615;-79
2024/01/25 07:40:10;;;;;;;20.57;5.90;;;7.40;65.70;;;;;;6227463;28;20235;-78
2024/01/25 07:43:13;;;;;;;22.63;5.60;;;7.40;65.80;;;;;;6218331;28;20271;-78
2024/01/25 07:46:18;;;;;;;18.03;5.57;;;7.40;65.70;;;;;;6216385;28;20246;-77
2024/01/25 07:49:21;;;;;;;17.73;5.57;;;7.40;65.80;;;;;;6216836;28;20384;-77
2024/01/25 07:52:25;;;;;;;20.10;6.23;;;7.40;65.80;;;;;;6215327;28;20325;-79
2024/01/25 07:55:30;;;;;;;15.67;5.83;;;7.50;65.60;;;;;;6215533;28;20362;-76
2024/01/25 07:58:33;;;;;;;19.53;6.27;;;7.50;65.50;;;;;;6215288;28;20235;-78
2024/01/25 08:01:38;;;;;;;15.33;6.00;;;7.50;65.70;;;;;;6231364;28;20710;-77
2024/01/25 08:04:41;;;;;;;25.60;6.10;;;7.50;65.50;;;;;;6239547;28;20935;-78
2024/01/25 08:07:46;;;;;;;16.07;5.57;;;7.50;65.50;;;;;;6232688;28;20243;-79
2024/01/25 08:10:50;;;;;;;12.17;5.70;;;7.40;65.60;;;;;;6204968;28;20247;-80
2024/01/25 08:13:53;;;;;;;17.67;6.33;;;7.40;65.50;;;;;;6202475;28;20242;-78
2024/01/25 08:16:57;;;;;;;12.30;6.00;;;7.50;65.50;;;;;;6205805;28;20235;-79
2024/01/25 08:20:00;;;;;;;10.53;5.33;;;7.40;65.60;;;;;;6205317;28;20725;-80
2024/01/25 08:23:04;;;;;;;24.77;6.20;;;7.40;65.60;;;;;;6203805;28;20265;-78
2024/01/25 08:26:09;;;;;;;13.63;5.50;;;7.40;65.50;;;;;;6203799;28;20884;-77
2024/01/25 08:29:12;;;;;;;12.93;5.47;;;7.30;66.00;;;;;;6205074;28;20375;-78
2024/01/25 08:32:17;;;;;;;17.17;5.90;;;7.40;65.40;;;;;;6208587;28;20240;-82
2024/01/25 08:35:20;;;;;;;14.20;5.40;;;7.40;65.70;;;;;;6207885;28;20780;-77
2024/01/25 08:38:24;;;;;;;16.67;6.33;;;7.40;65.70;;;;;;6205225;28;20293;-79
2024/01/25 08:41:27;;;;;;;16.57;6.77;;;7.50;65.70;;;;;;6206010;28;20739;-77
2024/01/25 08:44:35;;;;;;;19.97;6.57;;;7.50;65.30;;;;;;6237785;28;21510;-78
2024/01/25 08:47:39;;;;;;;12.63;5.17;;;7.50;65.50;;;;;;6236020;28;20343;-77
2024/01/25 08:50:42;;;;;;;13.37;5.57;;;7.50;65.50;;;;;;6233679;28;20235;-77
2024/01/25 08:53:50;;;;;;;16.33;5.57;;;7.60;65.20;;;;;;6233627;28;20245;-77
2024/01/25 08:56:54;;;;;;;12.47;6.20;;;7.60;65.30;;;;;;6231519;28;20234;-79
2024/01/25 08:59:58;;;;;;;16.53;5.90;;;7.60;65.10;;;;;;6230218;28;20234;-79
2024/01/25 09:03:02;;;;;;;16.07;5.93;;;7.60;65.40;;;;;;6233830;28;20249;-78
2024/01/25 09:06:06;;;;;;;16.53;5.90;;;7.60;65.30;;;;;;6228747;28;20247;-77
2024/01/25 09:09:12;;;;;;;19.83;5.97;;;7.60;65.30;;;;;;6231387;28;20257;-77
2024/01/25 09:12:16;;;;;;;22.30;6.30;;;7.60;64.90;;;;;;6232087;28;20245;-79
2024/01/25 09:15:19;;;;;;;15.37;5.63;;;7.60;65.10;;;;;;6231219;28;20250;-76
2024/01/25 09:18:25;;;;;;;14.87;5.93;;;7.60;65.10;;;;;;6234406;28;20638;-79
2024/01/25 09:21:28;;;;;;;17.03;5.40;;;7.60;65.00;;;;;;6231173;28;20337;-79
2024/01/25 09:24:31;;;;;;;18.07;6.20;;;7.60;65.10;;;;;;6231490;28;20288;-80
2024/01/25 09:27:34;;;;;;;19.37;5.90;;;7.50;65.40;;;;;;6231896;28;20247;-76
2024/01/25 09:30:37;;;;;;;13.23;5.50;;;7.50;65.40;;;;;;6233486;28;20242;-78
2024/01/25 09:33:42;;;;;;;13.93;5.97;;;7.50;65.40;;;;;;6232873;28;20238;-77
2024/01/25 09:36:46;;;;;;;18.67;5.57;;;7.60;65.60;;;;;;6223128;28;20249;-78
2024/01/25 09:39:49;;;;;;;18.97;5.47;;;7.50;65.50;;;;;;6231458;28;20540;-77
2024/01/25 09:42:54;;;;;;;21.33;5.67;;;7.50;65.60;;;;;;6229993;28;20239;-79
2024/01/25 09:45:57;;;;;;;15.97;6.47;;;7.50;65.70;;;;;;6229165;28;20776;-78
2024/01/25 09:49:02;;;;;;;17.43;6.20;;;7.50;65.70;;;;;;6230743;28;20246;-79
2024/01/25 09:52:07;;;;;;;15.20;5.13;;;7.50;65.50;;;;;;6228808;28;20265;-80
2024/01/25 09:55:14;;;;;;;15.07;5.73;;;7.50;65.60;;;;;;6228709;28;20245;-80
2024/01/25 09:58:18;;;;;;;15.13;5.27;;;7.60;65.30;;;;;;6231441;28;20251;-77
2024/01/25 10:01:21;;;;;;;14.27;5.60;;;7.50;65.60;;;;;;6231640;28;20249;-79
2024/01/25 10:04:26;;;;;;;20.30;6.83;;;7.50;65.80;;;;;;6229809;28;21095;-77
2024/01/25 10:07:39;;;;;;;9.93;4.87;;;7.50;65.70;;;;;;6219512;28;20242;-80
2024/01/25 10:10:43;;;;;;;16.97;5.43;;;7.60;65.70;;;;;;6230512;28;20643;-77
2024/01/25 10:13:50;;;;;;;17.97;5.40;;;7.70;65.30;;;;;;6230974;28;20242;-77
2024/01/25 10:16:54;;;;;;;12.53;5.40;;;7.60;65.40;;;;;;6232162;28;21416;-78
2024/01/25 10:20:07;;;;;;;11.07;5.57;;;7.60;65.50;;;;;;6228673;28;20235;-77
2024/01/25 10:23:10;;;;;;;20.00;6.13;;;7.60;65.60;;;;;;6230043;28;20238;-78
2024/01/25 10:26:14;;;;;;;16.23;6.00;;;7.60;65.70;;;;;;6224508;28;20243;-79
2024/01/25 10:29:17;;;;;;;12.43;5.87;;;7.60;65.90;;;;;;6228142;28;20246;-77
2024/01/25 10:32:20;;;;;;;14.57;5.50;;;7.60;66.10;;;;;;6231392;28;20249;-81
2024/01/25 10:35:26;;;;;;;18.20;5.53;;;7.60;66.00;;;;;;6226351;28;20801;-77
2024/01/25 10:38:32;;;;;;;18.40;5.73;;;7.70;66.00;;;;;;6218584;28;20227;-77
2024/01/25 10:41:37;;;;;;;17.73;5.20;;;7.80;65.60;;;;;;6229483;28;20782;-79
2024/01/25 10:44:40;;;;;;;13.90;6.07;;;7.80;65.40;;;;;;6228390;28;20373;-77
2024/01/25 10:47:44;;;;;;;12.93;5.43;;;7.80;65.30;;;;;;6232597;28;20246;-77
2024/01/25 10:50:49;;;;;;;16.57;5.80;;;7.80;65.30;;;;;;6229109;28;20289;-78
2024/01/25 10:53:54;;;;;;;15.87;5.83;;;7.90;64.70;;;;;;6227545;28;20344;-78
2024/01/25 10:56:59;;;;;;;16.13;5.70;;;8.00;65.00;;;;;;6228644;28;20400;-76
2024/01/25 11:00:03;;;;;;;14.57;5.37;;;8.00;64.70;;;;;;6230721;28;20243;-79
2024/01/25 11:03:07;;;;;;;18.23;5.60;;;8.00;64.50;;;;;;6230372;28;20285;-79
2024/01/25 11:06:13;;;;;;;14.83;5.17;;;8.00;64.70;;;;;;6228030;28;20246;-78
2024/01/25 11:09:19;;;;;;;17.43;6.17;;;8.00;65.20;;;;;;6218276;28;20997;-79
2024/01/25 11:12:23;;;;;;;15.07;5.40;;;8.10;64.80;;;;;;6245033;28;20230;-79
2024/01/25 11:15:32;;;;;;;20.23;5.87;;;8.10;64.70;;;;;;6233967;28;20243;-78
2024/01/25 11:18:36;;;;;;;22.10;5.17;;;8.10;64.60;;;;;;6239954;28;20249;-79
2024/01/25 11:21:43;;;;;;;17.30;5.50;;;8.20;64.40;;;;;;6239554;28;20234;-78
2024/01/25 11:24:48;;;;;;;11.73;4.87;;;8.10;64.70;;;;;;6239048;28;20850;-79
2024/01/25 11:27:52;;;;;;;18.70;6.07;;;8.10;64.70;;;;;;6240595;28;20744;-80
2024/01/25 11:30:56;;;;;;;17.63;5.63;;;8.00;64.70;;;;;;6240249;28;20768;-81
2024/01/25 11:33:59;;;;;;;13.87;5.53;;;8.00;64.80;;;;;;6240977;28;20254;-80
2024/01/25 11:37:05;;;;;;;19.90;5.30;;;8.00;64.80;;;;;;6239351;28;20242;-79
2024/01/25 11:40:09;;;;;;;11.60;5.30;;;8.10;64.60;;;;;;6227993;28;20230;-78
2024/01/25 11:43:14;;;;;;;15.27;5.47;;;8.10;64.40;;;;;;6226131;28;20317;-79
2024/01/25 11:46:19;;;;;;;14.43;5.27;;;8.00;64.70;;;;;;6228829;28;21576;-79
2024/01/25 11:49:24;;;;;;;11.73;5.43;;;8.10;64.40;;;;;;6229280;28;20238;-77
2024/01/25 11:52:31;;;;;;;12.47;5.53;;;8.30;64.10;;;;;;6228141;28;20231;-79
2024/01/25 11:55:35;;;;;;;13.03;5.63;;;8.30;63.80;;;;;;6227349;28;20247;-77
2024/01/25 11:58:38;;;;;;;10.47;4.93;;;8.30;64.20;;;;;;6227716;28;20269;-78
2024/01/25 12:01:44;;;;;;;13.23;5.10;;;8.40;63.70;;;;;;6229759;28;20245;-77
2024/01/25 12:04:48;;;;;;;12.17;5.03;;;8.40;63.00;;;;;;6229105;28;20348;-79
2024/01/25 12:07:53;;;;;;;11.97;6.10;;;8.40;62.70;;;;;;6231720;28;20324;-77
2024/01/25 12:11:04;;;;;;;16.80;5.77;;;8.40;62.70;;;;;;6224631;28;20239;-79
2024/01/25 12:14:09;;;;;;;10.90;4.60;;;8.40;62.70;;;;;;6218062;28;20887;-78
2024/01/25 12:17:12;;;;;;;15.20;5.07;;;8.40;62.40;;;;;;6218410;28;20277;-78
2024/01/25 12:20:18;;;;;;;16.53;5.43;;;8.50;62.30;;;;;;6220201;28;20238;-78
2024/01/25 12:23:24;;;;;;;15.57;5.20;;;8.40;62.80;;;;;;6218862;28;20449;-78
2024/01/25 12:26:27;;;;;;;18.30;5.00;;;8.60;63.00;;;;;;6220946;28;20326;-77
2024/01/25 12:29:31;;;;;;;15.87;5.67;;;8.60;62.50;;;;;;6218196;28;20812;-79
2024/01/25 12:32:34;;;;;;;16.47;5.53;;;8.50;62.30;;;;;;6219218;28;20880;-77
2024/01/25 12:35:37;;;;;;;18.67;5.23;;;8.50;62.00;;;;;;6218069;28;20265;-79
2024/01/25 12:38:42;;;;;;;12.27;4.80;;;8.50;61.70;;;;;;6217959;28;20246;-74
2024/01/25 12:41:45;;;;;;;9.03;4.53;;;8.40;62.00;;;;;;6219857;28;20478;-79
2024/01/25 12:44:52;;;;;;;12.67;4.70;;;8.50;62.10;;;;;;6221612;28;20273;-80
2024/01/25 12:47:55;;;;;;;14.00;4.53;;;8.50;62.10;;;;;;6211324;28;21468;-77
2024/01/25 12:50:59;;;;;;;12.83;5.27;;;8.50;62.20;;;;;;6209701;28;20239;-78
2024/01/25 12:54:03;;;;;;;19.87;5.40;;;8.50;62.20;;;;;;6231040;28;20250;-80
2024/01/25 12:57:07;;;;;;;13.57;4.80;;;8.50;62.70;;;;;;6233145;28;20341;-76
2024/01/25 13:00:11;;;;;;;13.67;4.97;;;8.50;63.10;;;;;;6228911;28;20238;-79
2024/01/25 13:03:14;;;;;;;16.57;5.37;;;8.40;63.50;;;;;;6232458;28;20271;-76
2024/01/25 13:06:17;;;;;;;17.93;4.93;;;8.40;63.60;;;;;;6231508;28;20300;-76
2024/01/25 13:09:22;;;;;;;13.70;5.10;;;8.40;63.70;;;;;;6228392;28;20242;-76
2024/01/25 13:12:26;;;;;;;10.93;5.53;;;8.40;63.90;;;;;;6233009;28;20321;-77
2024/01/25 13:15:29;;;;;;;16.57;5.10;;;8.30;64.10;;;;;;6231514;28;20247;-78
2024/01/25 13:18:32;;;;;;;15.50;5.63;;;8.20;64.40;;;;;;6233095;28;20233;-76
2024/01/25 13:21:35;;;;;;;23.03;6.27;;;8.10;64.70;;;;;;6231866;28;20244;-77
2024/01/25 13:24:40;;;;;;;14.47;5.40;;;8.10;65.00;;;;;;6230198;28;20239;-80
2024/01/25 13:27:43;;;;;;;14.73;5.07;;;8.20;65.00;;;;;;6230335;28;20259;-79
2024/01/25 13:30:46;;;;;;;12.30;5.23;;;8.20;64.70;;;;;;6230132;28;20737;-79
2024/01/25 13:33:49;;;;;;;12.27;5.13;;;8.10;64.70;;;;;;6231042;28;20243;-77
2024/01/25 13:36:53;;;;;;;11.73;4.87;;;8.10;64.80;;;;;;6233085;28;20290;-77
2024/01/25 13:39:57;;;;;;;14.90;5.00;;;8.10;64.70;;;;;;6231460;28;20242;-76
2024/01/25 13:43:00;;;;;;;19.13;5.67;;;8.00;64.70;;;;;;6232035;28;20281;-79
2024/01/25 13:46:03;;;;;;;16.43;5.60;;;8.00;64.90;;;;;;6231996;28;20270;-78
2024/01/25 13:49:07;;;;;;;15.03;5.60;;;8.00;64.90;;;;;;6231530;28;20247;-77
2024/01/25 13:52:19;;;;;;;16.07;5.90;;;8.00;64.80;;;;;;6231422;28;20696;-78
2024/01/25 13:55:23;;;;;;;13.90;5.30;;;8.00;64.60;;;;;;6233161;28;20609;-78
2024/01/25 13:58:26;;;;;;;14.70;5.77;;;8.00;64.70;;;;;;6228702;28;20297;-76
2024/01/25 14:01:30;;;;;;;15.40;5.60;;;8.00;64.60;;;;;;6229299;28;20440;-79
2024/01/25 14:04:35;;;;;;;11.17;5.40;;;8.00;64.50;;;;;;6232403;28;20247;-77
2024/01/25 14:07:38;;;;;;;14.40;5.80;;;8.00;64.40;;;;;;6231100;28;20604;-78
2024/01/25 14:10:43;;;;;;;15.07;5.40;;;8.00;64.00;;;;;;6233730;28;20238;-80
2024/01/25 14:13:46;;;;;;;16.00;5.07;;;8.00;64.00;;;;;;6232723;28;20617;-76
2024/01/25 14:16:50;;;;;;;11.70;5.07;;;8.00;64.30;;;;;;6236100;28;20380;-79
2024/01/25 14:19:53;;;;;;;8.43;4.13;;;8.00;64.10;;;;;;6237179;28;20238;-78
2024/01/25 14:22:57;;;;;;;17.27;5.93;;;8.00;64.10;;;;;;6235669;28;20239;-78
2024/01/25 14:26:02;;;;;;;13.17;5.27;;;8.00;64.10;;;;;;6240378;28;20266;-78
2024/01/25 14:29:06;;;;;;;12.63;4.83;;;7.90;63.90;;;;;;6239914;28;20256;-76
2024/01/25 14:32:09;;;;;;;11.57;5.70;;;8.00;63.80;;;;;;6233433;28;20300;-80
2024/01/25 14:35:12;;;;;;;16.60;5.10;;;8.00;63.70;;;;;;6230616;28;20239;-79
2024/01/25 14:38:16;;;;;;;16.70;5.60;;;8.00;63.50;;;;;;6235156;28;20632;-79
2024/01/25 14:41:20;;;;;;;11.73;4.93;;;7.90;63.60;;;;;;6230072;28;20246;-77
2024/01/25 14:44:23;;;;;;;11.83;4.87;;;7.80;63.90;;;;;;6229946;28;20235;-76
2024/01/25 14:47:26;;;;;;;10.87;4.90;;;7.80;63.70;;;;;;6230713;28;20245;-78
2024/01/25 14:50:31;;;;;;;9.97;4.50;;;7.80;64.10;;;;;;6227205;28;20246;-78
2024/01/25 14:53:34;;;;;;;14.30;5.37;;;7.80;63.90;;;;;;6226163;28;20418;-76
2024/01/25 14:56:39;;;;;;;16.87;5.43;;;7.80;63.90;;;;;;6227866;28;20235;-76
2024/01/25 14:59:43;;;;;;;12.23;4.70;;;7.80;63.90;;;;;;6230166;28;20231;-74
2024/01/25 15:02:46;;;;;;;10.67;5.00;;;7.80;64.20;;;;;;6227698;28;20294;-78
2024/01/25 15:05:49;;;;;;;15.87;5.30;;;7.70;64.10;;;;;;6226574;28;20239;-77
2024/01/25 15:08:53;;;;;;;16.47;4.77;;;7.60;64.30;;;;;;6228413;28;20246;-79
2024/01/25 15:11:57;;;;;;;13.70;5.33;;;7.60;64.50;;;;;;6229707;28;20242;-80
2024/01/25 15:15:01;;;;;;;12.23;4.83;;;7.60;64.70;;;;;;6231530;28;20247;-79
2024/01/25 15:18:05;;;;;;;7.20;4.90;;;7.60;64.70;;;;;;6228038;28;20246;-77
2024/01/25 15:21:08;;;;;;;11.87;4.93;;;7.50;64.80;;;;;;6228549;28;20339;-78
2024/01/25 15:24:11;;;;;;;11.57;4.70;;;7.50;65.20;;;;;;6228177;28;20273;-78
2024/01/25 15:27:16;;;;;;;15.83;4.90;;;7.50;65.10;;;;;;6228162;28;20703;-77
2024/01/25 15:30:19;;;;;;;14.00;4.93;;;7.50;65.00;;;;;;6209422;28;21144;-80
2024/01/25 15:33:23;;;;;;;10.77;4.70;;;7.50;65.20;;;;;;6228260;28;20638;-81
2024/01/25 15:36:26;;;;;;;7.97;4.53;;;7.50;65.40;;;;;;6228134;28;20879;-78
2024/01/25 15:39:29;;;;;;;12.50;4.90;;;7.50;65.40;;;;;;6229290;28;20883;-78
2024/01/25 15:42:34;;;;;;;15.37;5.27;;;7.50;65.40;;;;;;6224493;28;20238;-79
2024/01/25 15:45:37;;;;;;;17.03;5.20;;;7.50;65.50;;;;;;6230909;28;20243;-82
2024/01/25 15:48:40;;;;;;;12.43;5.73;;;7.50;65.60;;;;;;6229477;28;20245;-78
2024/01/25 15:51:44;;;;;;;11.43;5.00;;;7.50;65.80;;;;;;6227551;28;20242;-77
2024/01/25 15:54:47;;;;;;;12.53;5.00;;;7.40;65.80;;;;;;6230585;28;20231;-79
2024/01/25 15:57:52;;;;;;;9.57;4.47;;;7.40;65.90;;;;;;6233502;28;20279;-80
2024/01/25 16:00:55;;;;;;;15.90;5.10;;;7.50;65.80;;;;;;6234237;28;20273;-77
2024/01/25 16:03:58;;;;;;;14.23;5.40;;;7.50;65.80;;;;;;6231115;28;20951;-79